Terminal Aerodrome Forecast
Issued by NWS Bismarck, ND

Home | Current Version | Previous Version | Text Only | Print | Product List | Glossary On
Versions: 1 2 3 4 5 6 7 8 9 10 11 12 13 14 15 16 17 18 19 20 21 22 23 24 25 26 27 28 29 30 31
354
FTUS43 KBIS 222226 AAA
TAFISN
TAF AMD
KISN 222226Z 2222/2318 01006KT P6SM FEW030 OVC080
     FM230000 01005KT P6SM OVC025
     FM230300 00000KT P6SM OVC060
     FM230400 00000KT 2SM BR OVC080
     FM230600 VRB03KT 2SM BR OVC025
     FM231600 05004KT P6SM OVC015=

USA.gov is the U.S. government's official web portal to all federal, state and local government web resources and services.